Time;durP1;ratioP1;P1;durP2;ratioP2;P2;SDS_P1;SDS_P2;PMS_P1;PMS_P2;Temp;Humidity;BMP_temperature;BMP_pressure;BME280_temperature;BME280_humidity;BME280_pressure;Samples;Min_cycle;Max_cycle;Signal;HPM_P1;HPM_P2
2023/12/15 00:00:27;;;;;;;0.30;0.30;;;18.90;54.20;;;;;;8362697;28;20481;-52
2023/12/15 00:04:28;;;;;;;0.22;0.22;;;18.90;54.10;;;;;;8362413;28;20033;-51
2023/12/15 00:08:29;;;;;;;0.28;0.28;;;18.80;54.00;;;;;;8362449;28;20041;-52
2023/12/15 00:12:30;;;;;;;0.30;0.30;;;18.90;54.10;;;;;;8362170;28;20033;-51
2023/12/15 00:16:30;;;;;;;0.40;0.40;;;18.90;54.10;;;;;;8362019;28;20104;-52
2023/12/15 00:20:31;;;;;;;0.50;0.50;;;18.90;54.10;;;;;;8361887;28;20060;-50
2023/12/15 00:24:32;;;;;;;0.65;0.52;;;18.80;54.00;;;;;;8361730;28;20079;-52
2023/12/15 00:28:32;;;;;;;0.40;0.40;;;18.80;54.10;;;;;;8361436;28;20037;-51
2023/12/15 00:32:33;;;;;;;0.30;0.30;;;18.80;54.00;;;;;;8361446;28;20037;-51
2023/12/15 00:36:34;;;;;;;0.60;0.40;;;18.80;54.00;;;;;;8361241;28;20048;-52
2023/12/15 00:40:34;;;;;;;0.30;0.30;;;18.80;54.00;;;;;;8361530;28;20037;-49
2023/12/15 00:44:35;;;;;;;0.38;0.30;;;18.90;54.10;;;;;;8361253;28;20125;-52
2023/12/15 00:48:36;;;;;;;0.30;0.30;;;18.80;54.00;;;;;;8361115;28;20036;-50
2023/12/15 00:52:36;;;;;;;0.30;0.30;;;18.80;54.00;;;;;;8361100;28;20362;-52
2023/12/15 00:56:37;;;;;;;0.40;0.40;;;18.80;54.10;;;;;;8360839;28;20033;-50
2023/12/15 01:00:38;;;;;;;0.75;0.40;;;18.80;54.10;;;;;;8360588;28;20037;-52
2023/12/15 01:04:38;;;;;;;0.30;0.30;;;18.80;54.10;;;;;;8359487;28;20036;-51
2023/12/15 01:08:39;;;;;;;0.40;0.40;;;18.80;54.10;;;;;;8359811;28;20033;-53
2023/12/15 01:12:40;;;;;;;0.30;0.30;;;18.80;54.10;;;;;;8360480;28;20158;-52
2023/12/15 01:16:46;;;;;;;0.35;0.35;;;18.80;54.10;;;;;;8360552;28;20082;-51
2023/12/15 01:20:47;;;;;;;0.75;0.45;;;18.80;54.10;;;;;;8360345;28;20029;-53
2023/12/15 01:24:48;;;;;;;0.30;0.30;;;18.80;54.10;;;;;;8360331;28;20094;-52
2023/12/15 01:28:48;;;;;;;0.25;0.25;;;18.80;54.10;;;;;;8360283;28;20033;-51
2023/12/15 01:32:49;;;;;;;0.40;0.40;;;18.80;54.10;;;;;;8360110;28;20392;-52
2023/12/15 01:36:50;;;;;;;0.52;0.40;;;18.80;54.10;;;;;;8359679;28;20048;-52
2023/12/15 01:40:50;;;;;;;0.30;0.30;;;18.80;54.10;;;;;;8359306;28;20446;-52
2023/12/15 01:44:51;;;;;;;0.40;0.40;;;18.80;54.10;;;;;;8360056;28;20486;-51
2023/12/15 01:48:52;;;;;;;0.60;0.50;;;18.80;54.10;;;;;;8359998;28;20032;-52
2023/12/15 01:52:53;;;;;;;0.35;0.30;;;18.80;54.10;;;;;;8359730;28;20095;-51
2023/12/15 01:56:54;;;;;;;0.50;0.50;;;18.80;54.10;;;;;;8359779;28;20061;-51
2023/12/15 02:00:54;;;;;;;0.77;0.45;;;18.80;54.10;;;;;;8360082;28;20485;-52
2023/12/15 02:04:55;;;;;;;0.30;0.30;;;18.80;54.10;;;;;;8360519;28;20037;-52
2023/12/15 02:08:56;;;;;;;0.30;0.30;;;18.80;54.10;;;;;;8359614;28;20444;-51
2023/12/15 02:12:56;;;;;;;0.50;0.40;;;18.70;54.10;;;;;;8359658;28;20037;-53
2023/12/15 02:16:57;;;;;;;0.30;0.30;;;18.80;54.10;;;;;;8359622;28;20033;-52
2023/12/15 02:20:58;;;;;;;0.30;0.30;;;18.80;54.10;;;;;;8359309;28;20040;-52
2023/12/15 02:24:58;;;;;;;0.30;0.30;;;18.70;54.10;;;;;;8359308;28;20057;-51
2023/12/15 02:28:59;;;;;;;0.30;0.30;;;18.70;54.60;;;;;;8359268;28;20039;-53
2023/12/15 02:33:00;;;;;;;0.30;0.30;;;18.70;54.10;;;;;;8359266;28;20036;-52
2023/12/15 02:37:00;;;;;;;0.30;0.30;;;18.70;54.10;;;;;;8359209;28;20045;-52
2023/12/15 02:41:01;;;;;;;0.40;0.40;;;18.80;54.10;;;;;;8357852;28;20032;-52
2023/12/15 02:45:02;;;;;;;0.25;0.25;;;18.70;54.10;;;;;;8357853;28;20056;-52
2023/12/15 02:49:03;;;;;;;0.30;0.30;;;18.70;54.00;;;;;;8359177;28;20028;-53
2023/12/15 02:53:03;;;;;;;0.30;0.30;;;18.70;54.10;;;;;;8364848;28;20072;-51
2023/12/15 02:57:04;;;;;;;0.30;0.30;;;18.70;54.10;;;;;;8364618;28;20060;-52
2023/12/15 03:01:05;;;;;;;0.22;0.22;;;18.70;54.60;;;;;;8364676;28;20041;-52
2023/12/15 03:05:06;;;;;;;0.40;0.40;;;18.70;54.10;;;;;;8364537;28;20064;-52
2023/12/15 03:09:07;;;;;;;0.55;0.55;;;18.70;54.00;;;;;;8364339;28;20526;-52
2023/12/15 03:13:08;;;;;;;0.30;0.30;;;18.70;54.00;;;;;;8364330;28;20387;-53
2023/12/15 03:17:08;;;;;;;0.40;0.40;;;18.70;54.10;;;;;;8364220;28;20395;-48
2023/12/15 03:21:09;;;;;;;0.30;0.30;;;18.70;54.10;;;;;;8363971;28;20057;-49
2023/12/15 03:25:10;;;;;;;0.40;0.40;;;18.70;54.10;;;;;;8363711;28;20442;-48
2023/12/15 03:29:11;;;;;;;0.50;0.40;;;18.70;54.10;;;;;;8363690;28;20029;-48
2023/12/15 03:33:12;;;;;;;0.40;0.40;;;18.70;54.10;;;;;;8363812;28;20378;-51
2023/12/15 03:37:12;;;;;;;0.50;0.43;;;18.70;54.10;;;;;;8363221;28;20052;-49
2023/12/15 03:41:13;;;;;;;0.40;0.40;;;18.70;54.10;;;;;;8363108;28;20075;-47
2023/12/15 03:45:14;;;;;;;0.43;0.43;;;18.70;54.10;;;;;;8363385;28;20071;-49
2023/12/15 03:49:15;;;;;;;0.30;0.30;;;18.70;54.00;;;;;;8363184;28;20037;-49
2023/12/15 03:53:15;;;;;;;0.30;0.30;;;18.70;54.10;;;;;;8363904;28;20041;-48
2023/12/15 03:57:16;;;;;;;0.50;0.50;;;18.70;54.10;;;;;;8362949;28;20056;-51
2023/12/15 04:01:16;;;;;;;0.40;0.40;;;18.70;54.10;;;;;;8362374;28;20033;-48
2023/12/15 04:05:17;;;;;;;0.40;0.40;;;18.70;54.10;;;;;;8362588;28;20044;-47
2023/12/15 04:09:18;;;;;;;0.40;0.40;;;18.70;54.00;;;;;;8362604;28;20045;-49
2023/12/15 04:13:18;;;;;;;0.30;0.30;;;18.70;54.10;;;;;;8362283;28;20118;-49
2023/12/15 04:17:19;;;;;;;0.65;0.40;;;18.70;54.10;;;;;;8362235;28;20112;-49
2023/12/15 04:21:20;;;;;;;0.40;0.40;;;18.70;54.10;;;;;;8362217;28;20033;-48
2023/12/15 04:25:21;;;;;;;0.30;0.30;;;18.70;54.10;;;;;;8362068;28;20086;-52
2023/12/15 04:29:22;;;;;;;0.35;0.35;;;18.70;54.10;;;;;;8361756;28;20057;-47
2023/12/15 04:33:22;;;;;;;1.05;0.50;;;18.60;54.00;;;;;;8361866;28;20044;-47
2023/12/15 04:37:23;;;;;;;0.30;0.30;;;18.70;54.10;;;;;;8361451;28;20049;-51
2023/12/15 04:41:25;;;;;;;0.20;0.20;;;18.70;54.10;;;;;;8361178;28;20036;-49
2023/12/15 04:45:26;;;;;;;0.38;0.30;;;18.70;54.10;;;;;;8361551;28;20112;-47
2023/12/15 04:49:26;;;;;;;0.43;0.40;;;18.70;54.10;;;;;;8362025;28;20471;-49
2023/12/15 04:53:27;;;;;;;0.30;0.30;;;18.60;54.10;;;;;;8361167;28;20175;-51
2023/12/15 04:57:28;;;;;;;0.40;0.40;;;18.70;54.10;;;;;;8360865;28;20025;-50
2023/12/15 05:01:28;;;;;;;0.25;0.25;;;18.70;54.10;;;;;;8360809;28;20112;-48
2023/12/15 05:05:29;;;;;;;0.40;0.40;;;18.70;54.10;;;;;;8361001;28;20059;-50
2023/12/15 05:09:29;;;;;;;0.40;0.40;;;18.60;54.00;;;;;;8360745;28;20689;-49
2023/12/15 05:13:30;;;;;;;0.38;0.38;;;18.70;54.10;;;;;;8359443;28;20331;-49
2023/12/15 05:17:31;;;;;;;0.45;0.45;;;18.70;54.60;;;;;;8360365;28;20056;-48
2023/12/15 05:21:32;;;;;;;0.40;0.40;;;18.70;54.10;;;;;;8360618;28;20111;-48
2023/12/15 05:25:32;;;;;;;0.30;0.30;;;18.80;54.00;;;;;;8358905;28;20040;-48
2023/12/15 05:29:33;;;;;;;0.40;0.40;;;18.80;54.00;;;;;;8360137;28;20033;-49
2023/12/15 05:33:33;;;;;;;0.45;0.45;;;18.70;54.00;;;;;;8360288;28;20036;-49
2023/12/15 05:37:34;;;;;;;0.40;0.40;;;18.80;53.90;;;;;;8360038;28;20056;-47
2023/12/15 05:41:41;;;;;;;0.43;0.40;;;18.80;53.90;;;;;;8359781;28;20044;-48
2023/12/15 05:45:42;;;;;;;0.40;0.40;;;18.80;54.50;;;;;;8359927;28;20275;-48
2023/12/15 05:49:42;;;;;;;0.40;0.40;;;18.80;53.90;;;;;;8359668;28;20119;-47
2023/12/15 05:53:43;;;;;;;0.50;0.50;;;18.80;53.80;;;;;;8359839;28;20653;-50
2023/12/15 05:57:43;;;;;;;0.30;0.30;;;18.90;53.70;;;;;;8359979;28;20025;-49
2023/12/15 06:01:44;;;;;;;0.30;0.30;;;18.90;53.50;;;;;;8359575;28;20033;-48
2023/12/15 06:05:45;;;;;;;0.70;0.57;;;19.00;53.40;;;;;;8359697;28;20033;-48
2023/12/15 06:09:45;;;;;;;0.40;0.40;;;19.00;53.40;;;;;;8359361;28;20386;-47
2023/12/15 06:13:46;;;;;;;0.30;0.30;;;19.00;53.30;;;;;;8359407;28;20486;-49
2023/12/15 06:17:47;;;;;;;0.50;0.50;;;19.10;53.30;;;;;;8359372;28;20122;-48
2023/12/15 06:21:47;;;;;;;0.50;0.50;;;19.10;53.30;;;;;;8359315;28;20057;-47
2023/12/15 06:25:48;;;;;;;0.40;0.40;;;19.10;53.30;;;;;;8361887;28;20040;-48
2023/12/15 06:29:48;;;;;;;0.30;0.30;;;19.10;53.30;;;;;;8365680;28;20040;-49
2023/12/15 06:33:49;;;;;;;0.43;0.43;;;19.10;53.30;;;;;;8365627;28;20033;-48
2023/12/15 06:37:50;;;;;;;0.50;0.50;;;19.00;53.20;;;;;;8365345;28;20319;-48
2023/12/15 06:41:51;;;;;;;0.30;0.30;;;19.10;53.30;;;;;;8364942;28;20064;-48
2023/12/15 06:45:51;;;;;;;0.45;0.40;;;19.10;53.30;;;;;;8365217;28;20041;-48
2023/12/15 06:49:52;;;;;;;0.40;0.40;;;19.10;53.80;;;;;;8365182;28;20044;-52
2023/12/15 06:53:52;;;;;;;0.43;0.43;;;19.10;53.30;;;;;;8364623;28;20306;-50
2023/12/15 06:57:53;;;;;;;0.38;0.30;;;19.10;53.20;;;;;;8364719;28;20036;-52
2023/12/15 07:01:54;;;;;;;0.30;0.30;;;19.10;53.30;;;;;;8364696;28;20033;-50
2023/12/15 07:05:55;;;;;;;0.40;0.40;;;19.10;53.30;;;;;;8364607;28;20102;-51
2023/12/15 07:09:55;;;;;;;0.40;0.40;;;19.10;53.30;;;;;;8364259;28;20039;-49
2023/12/15 07:13:56;;;;;;;0.47;0.30;;;19.10;53.30;;;;;;8364312;28;20526;-49
2023/12/15 07:17:57;;;;;;;0.35;0.32;;;19.10;53.30;;;;;;8364363;28;20033;-50
2023/12/15 07:21:57;;;;;;;0.30;0.30;;;19.10;53.20;;;;;;8363932;28;20037;-50
2023/12/15 07:25:58;;;;;;;0.30;0.30;;;19.10;53.20;;;;;;8363947;28;20058;-51
2023/12/15 07:29:59;;;;;;;0.50;0.43;;;19.10;53.20;;;;;;8363703;28;20078;-51
2023/12/15 07:33:59;;;;;;;0.50;0.50;;;19.10;53.20;;;;;;8363446;28;20690;-52
2023/12/15 07:38:00;;;;;;;0.30;0.30;;;19.10;53.20;;;;;;8362312;28;20530;-50
2023/12/15 07:42:01;;;;;;;0.60;0.30;;;19.10;53.20;;;;;;8363556;28;20482;-50
2023/12/15 07:46:01;;;;;;;0.43;0.30;;;19.10;53.20;;;;;;8363355;28;20037;-51
2023/12/15 07:50:02;;;;;;;0.45;0.45;;;19.10;53.20;;;;;;8362993;28;20036;-50
2023/12/15 07:54:04;;;;;;;0.43;0.40;;;19.10;53.20;;;;;;8363196;28;20036;-51
2023/12/15 07:58:08;;;;;;;0.40;0.40;;;19.10;53.10;;;;;;8362038;28;20032;-51
2023/12/15 08:02:08;;;;;;;0.38;0.38;;;19.10;53.20;;;;;;8362940;28;20091;-52
2023/12/15 08:06:12;;;;;;;0.30;0.30;;;19.10;53.20;;;;;;8362922;28;20037;-51
2023/12/15 08:10:12;;;;;;;0.40;0.40;;;19.10;53.20;;;;;;8362463;28;20025;-52
2023/12/15 08:14:13;;;;;;;0.30;0.30;;;19.10;53.20;;;;;;8362428;28;20075;-51
2023/12/15 08:18:14;;;;;;;0.68;0.60;;;19.10;53.50;;;;;;8362385;28;20435;-51
2023/12/15 08:22:14;;;;;;;0.40;0.40;;;19.10;53.20;;;;;;8362109;28;20095;-50
2023/12/15 08:26:28;;;;;;;0.30;0.30;;;19.10;53.20;;;;;;8362578;28;20037;-52
2023/12/15 08:30:29;;;;;;;0.35;0.35;;;19.10;53.20;;;;;;8361784;28;20128;-50
2023/12/15 08:34:31;;;;;;;;;;;19.10;53.20;;;;;;8362313;28;20082;-49
2023/12/15 08:38:32;;;;;;;0.40;0.40;;;19.10;53.10;;;;;;8361652;28;19955;-52
2023/12/15 08:42:32;;;;;;;0.50;0.50;;;19.10;53.20;;;;;;8361453;28;20521;-52
2023/12/15 08:46:33;;;;;;;0.68;0.40;;;19.10;53.20;;;;;;8360299;28;20040;-51
2023/12/15 08:50:34;;;;;;;0.45;0.45;;;19.10;53.10;;;;;;8360974;28;20037;-52
2023/12/15 08:54:34;;;;;;;0.40;0.40;;;19.10;53.10;;;;;;8361155;28;20402;-51
2023/12/15 08:58:35;;;;;;;0.38;0.38;;;19.10;53.10;;;;;;8361009;28;20548;-51
2023/12/15 09:02:36;;;;;;;0.30;0.30;;;19.10;53.10;;;;;;8360978;28;20041;-52
2023/12/15 09:06:36;;;;;;;0.50;0.50;;;19.10;53.10;;;;;;8359805;28;20672;-50
2023/12/15 09:10:43;;;;;;;0.50;0.50;;;19.20;53.20;;;;;;8360716;28;20124;-52
2023/12/15 09:14:44;;;;;;;0.45;0.45;;;19.20;53.20;;;;;;8360765;28;20036;-52
2023/12/15 09:18:44;;;;;;;0.43;0.40;;;19.10;53.10;;;;;;8360681;28;20038;-52
2023/12/15 09:22:46;;;;;;;0.50;0.50;;;19.10;53.10;;;;;;8360530;28;20043;-51
2023/12/15 09:26:47;;;;;;;0.82;0.50;;;19.10;53.20;;;;;;8360376;28;20120;-53
2023/12/15 09:30:48;;;;;;;0.50;0.40;;;19.10;53.20;;;;;;8360286;28;20043;-51
2023/12/15 09:34:48;;;;;;;0.55;0.50;;;19.10;53.20;;;;;;8360172;28;20029;-50
2023/12/15 09:38:49;;;;;;;0.45;0.45;;;19.10;53.10;;;;;;8360104;28;20045;-52
2023/12/15 09:42:50;;;;;;;0.40;0.40;;;19.10;53.10;;;;;;8360201;28;20037;-51
2023/12/15 09:46:51;;;;;;;0.30;0.30;;;19.10;53.10;;;;;;8360095;28;20037;-52
2023/12/15 09:50:55;;;;;;;0.55;0.55;;;19.10;53.20;;;;;;8359812;28;20039;-52
2023/12/15 09:54:56;;;;;;;0.50;0.50;;;19.10;53.10;;;;;;8360049;28;20122;-53
2023/12/15 09:58:57;;;;;;;0.40;0.40;;;19.20;53.20;;;;;;8359877;28;20025;-52
2023/12/15 10:02:59;;;;;;;0.60;0.45;;;19.20;53.10;;;;;;8366256;28;20501;-51
2023/12/15 10:06:59;;;;;;;0.40;0.40;;;19.20;53.10;;;;;;8366903;28;20029;-52
2023/12/15 10:11:00;;;;;;;0.50;0.50;;;19.10;53.10;;;;;;8366458;28;20033;-52
2023/12/15 10:15:01;;;;;;;0.95;0.55;;;19.10;53.20;;;;;;8366046;28;20479;-52
2023/12/15 10:19:06;;;;;;;0.40;0.40;;;19.10;53.20;;;;;;8366012;28;20471;-48
2023/12/15 10:23:07;;;;;;;0.35;0.35;;;19.10;53.80;;;;;;8365736;28;20366;-48
2023/12/15 10:27:08;;;;;;;0.40;0.40;;;19.10;53.30;;;;;;8365801;28;20490;-49
2023/12/15 10:31:08;;;;;;;;;;;19.10;53.30;;;;;;8365945;28;20037;-48
2023/12/15 10:35:12;;;;;;;0.47;0.40;;;19.10;53.30;;;;;;8365687;28;19915;-48
2023/12/15 10:39:14;;;;;;;0.40;0.40;;;19.10;53.30;;;;;;8365018;28;20053;-49
2023/12/15 10:43:15;;;;;;;0.40;0.40;;;19.10;53.30;;;;;;8365540;28;20025;-48
2023/12/15 10:47:16;;;;;;;0.40;0.40;;;19.00;53.30;;;;;;8363988;28;20509;-48
2023/12/15 10:51:17;;;;;;;0.50;0.50;;;19.10;53.30;;;;;;8365067;28;20506;-49
2023/12/15 10:55:20;;;;;;;;;;;19.10;53.30;;;;;;8365307;28;20063;-48
2023/12/15 10:59:20;;;;;;;0.38;0.38;;;19.00;53.30;;;;;;8365218;28;20444;-48
2023/12/15 11:03:23;;;;;;;0.47;0.47;;;19.00;53.40;;;;;;8364571;28;20371;-47
2023/12/15 11:07:24;;;;;;;0.40;0.40;;;19.00;53.30;;;;;;8364206;28;20063;-48
2023/12/15 11:11:25;;;;;;;1.77;0.50;;;19.00;53.40;;;;;;8364152;28;20033;-48
2023/12/15 11:15:27;;;;;;;0.50;0.50;;;19.10;53.40;;;;;;8362902;28;20047;-47
2023/12/15 11:19:27;;;;;;;0.40;0.40;;;19.10;53.40;;;;;;8364082;28;20095;-47
2023/12/15 11:23:30;;;;;;;0.63;0.63;;;19.00;53.30;;;;;;8363899;28;20065;-50
2023/12/15 11:27:31;;;;;;;0.50;0.50;;;19.00;53.30;;;;;;8363613;28;20061;-49
2023/12/15 11:31:33;;;;;;;;;;;19.00;53.30;;;;;;8364168;28;20048;-53
2023/12/15 11:35:34;;;;;;;0.50;0.50;;;19.00;53.30;;;;;;8363369;28;19950;-55
2023/12/15 11:39:36;;;;;;;;;;;19.00;53.40;;;;;;8363509;28;20045;-55
2023/12/15 11:43:37;;;;;;;0.55;0.40;;;19.00;53.40;;;;;;8363228;28;19913;-54
2023/12/15 11:47:37;;;;;;;0.45;0.43;;;19.00;53.40;;;;;;8363349;28;20036;-54
2023/12/15 11:51:39;;;;;;;0.47;0.47;;;19.00;53.40;;;;;;8362710;28;20120;-52
2023/12/15 11:55:41;;;;;;;0.40;0.40;;;19.00;53.40;;;;;;8362870;28;20037;-53
2023/12/15 11:59:45;;;;;;;0.40;0.40;;;19.00;53.40;;;;;;8329894;28;20060;-54
2023/12/15 12:03:45;;;;;;;0.40;0.40;;;19.00;53.50;;;;;;8329608;28;20034;-53
2023/12/15 12:07:46;;;;;;;0.30;0.30;;;19.00;53.40;;;;;;8329473;28;20033;-54
2023/12/15 12:11:47;;;;;;;0.40;0.40;;;19.00;53.50;;;;;;8329374;28;20395;-53
2023/12/15 12:15:55;;;;;;;1.45;1.02;;;19.00;53.40;;;;;;8329449;28;20025;-54
2023/12/15 12:20:01;;;;;;;0.40;0.40;;;19.00;53.40;;;;;;8329212;28;20052;-55
2023/12/15 12:24:01;;;;;;;0.55;0.55;;;19.00;53.50;;;;;;8328481;28;20037;-53
2023/12/15 12:28:02;;;;;;;1.25;0.60;;;19.00;53.50;;;;;;8347491;28;20037;-55
2023/12/15 12:32:06;;;;;;;0.90;0.50;;;19.00;53.50;;;;;;8361625;28;20095;-54
2023/12/15 12:36:08;;;;;;;0.40;0.40;;;19.00;53.50;;;;;;8361612;28;20045;-53
2023/12/15 12:40:09;;;;;;;0.43;0.43;;;19.00;53.60;;;;;;8361444;28;20094;-49
2023/12/15 12:44:09;;;;;;;;;;;19.00;53.50;;;;;;8361939;28;20110;-48
2023/12/15 12:48:10;;;;;;;0.50;0.50;;;19.00;53.50;;;;;;8361768;28;19913;-50
2023/12/15 12:52:11;;;;;;;1.00;0.40;;;19.00;53.50;;;;;;8361197;28;20041;-49
2023/12/15 12:56:12;;;;;;;;;;;19.00;53.40;;;;;;8361516;28;20025;-48
2023/12/15 13:00:13;;;;;;;0.30;0.30;;;19.00;53.40;;;;;;8361195;28;19947;-47
2023/12/15 13:04:14;;;;;;;;;;;19.00;53.40;;;;;;8361454;28;20029;-49
2023/12/15 13:08:14;;;;;;;0.50;0.40;;;19.00;53.40;;;;;;8361059;28;19941;-48
2023/12/15 13:12:17;;;;;;;0.50;0.40;;;19.00;53.40;;;;;;8360638;28;20041;-48
2023/12/15 13:16:18;;;;;;;0.30;0.30;;;19.00;53.50;;;;;;8360594;28;20033;-49
2023/12/15 13:20:19;;;;;;;0.40;0.40;;;19.00;53.50;;;;;;8360561;28;20071;-48
2023/12/15 13:24:20;;;;;;;0.68;0.50;;;19.00;53.50;;;;;;8360740;28;20091;-49
2023/12/15 13:28:24;;;;;;;0.35;0.35;;;19.00;53.50;;;;;;8360303;28;20033;-49
2023/12/15 13:32:25;;;;;;;0.43;0.40;;;19.00;53.50;;;;;;8360369;28;20033;-48
2023/12/15 13:36:25;;;;;;;0.75;0.63;;;19.00;53.40;;;;;;8359235;28;20183;-50
2023/12/15 13:40:26;;;;;;;0.38;0.35;;;19.00;53.40;;;;;;8360137;28;20044;-47
2023/12/15 13:44:27;;;;;;;0.40;0.40;;;19.00;53.50;;;;;;8360078;28;20448;-48
2023/12/15 13:48:28;;;;;;;0.50;0.50;;;19.00;53.40;;;;;;8360278;28;20033;-53
2023/12/15 13:52:28;;;;;;;0.40;0.40;;;19.00;53.40;;;;;;8359953;28;20120;-52
2023/12/15 13:56:29;;;;;;;0.95;0.57;;;19.00;53.30;;;;;;8359911;28;20033;-51
2023/12/15 14:00:30;;;;;;;0.30;0.30;;;19.00;53.30;;;;;;8359816;28;20029;-52
2023/12/15 14:04:32;;;;;;;0.40;0.40;;;19.00;53.40;;;;;;8360734;28;20498;-50
2023/12/15 14:08:32;;;;;;;0.30;0.30;;;19.00;53.30;;;;;;8359849;28;20033;-51
2023/12/15 14:12:33;;;;;;;0.40;0.40;;;19.00;53.40;;;;;;8359495;28;20119;-52
2023/12/15 14:16:34;;;;;;;0.90;0.47;;;19.00;53.40;;;;;;8359553;28;20060;-51
2023/12/15 14:20:35;;;;;;;0.32;0.32;;;19.00;53.40;;;;;;8359378;28;20388;-52
2023/12/15 14:24:36;;;;;;;0.32;0.32;;;19.00;53.30;;;;;;8359515;28;20033;-51
2023/12/15 14:28:36;;;;;;;0.40;0.40;;;19.00;53.40;;;;;;8359584;28;20037;-51
2023/12/15 14:32:37;;;;;;;0.40;0.40;;;19.00;53.40;;;;;;8359316;28;20116;-52
2023/12/15 14:36:38;;;;;;;0.52;0.50;;;19.00;53.40;;;;;;8359038;28;20076;-52
2023/12/15 14:40:39;;;;;;;0.60;0.40;;;19.00;53.40;;;;;;8359292;28;20509;-52
2023/12/15 14:44:39;;;;;;;0.60;0.60;;;19.00;53.40;;;;;;8359474;28;20029;-51
2023/12/15 14:48:40;;;;;;;0.55;0.40;;;19.00;53.30;;;;;;8364552;28;20025;-51
2023/12/15 14:52:42;;;;;;;0.40;0.40;;;19.00;53.40;;;;;;8365117;28;20079;-51
2023/12/15 14:56:43;;;;;;;0.40;0.40;;;19.00;53.40;;;;;;8364851;28;20061;-51
2023/12/15 15:00:44;;;;;;;0.30;0.30;;;19.00;53.40;;;;;;8364817;28;20067;-52
2023/12/15 15:04:45;;;;;;;0.30;0.30;;;19.00;53.40;;;;;;8364795;28;20029;-52
2023/12/15 15:08:45;;;;;;;0.57;0.57;;;19.00;53.40;;;;;;8363494;28;20029;-51
2023/12/15 15:12:46;;;;;;;0.50;0.47;;;19.00;53.40;;;;;;8364403;28;20083;-49
2023/12/15 15:16:47;;;;;;;0.43;0.43;;;18.90;53.40;;;;;;8364451;28;20032;-51
2023/12/15 15:20:48;;;;;;;0.73;0.43;;;18.90;53.40;;;;;;8364320;28;20033;-51
2023/12/15 15:24:48;;;;;;;0.30;0.30;;;18.90;53.50;;;;;;8364128;28;20057;-53
2023/12/15 15:28:49;;;;;;;0.47;0.40;;;18.90;53.50;;;;;;8363726;28;20528;-52
2023/12/15 15:32:52;;;;;;;0.30;0.30;;;18.90;53.50;;;;;;8364004;28;20033;-51
2023/12/15 15:36:53;;;;;;;0.60;0.45;;;18.90;53.50;;;;;;8362357;28;20437;-51
2023/12/15 15:40:53;;;;;;;0.32;0.32;;;18.90;53.50;;;;;;8363700;28;20056;-52
2023/12/15 15:44:54;;;;;;;0.40;0.40;;;18.90;53.50;;;;;;8363562;28;20061;-53
2023/12/15 15:48:55;;;;;;;0.50;0.50;;;18.90;53.50;;;;;;8363319;28;20037;-52
2023/12/15 15:52:55;;;;;;;0.35;0.35;;;18.90;53.40;;;;;;8363169;28;20037;-52
2023/12/15 15:56:56;;;;;;;0.40;0.40;;;19.00;53.40;;;;;;8362360;28;20466;-51
2023/12/15 16:00:57;;;;;;;0.45;0.38;;;19.00;53.40;;;;;;8363059;28;20108;-51
2023/12/15 16:04:57;;;;;;;0.30;0.30;;;19.00;53.30;;;;;;8362814;28;20037;-53
2023/12/15 16:08:58;;;;;;;0.40;0.40;;;19.00;53.30;;;;;;8362595;28;20777;-48
2023/12/15 16:12:59;;;;;;;;;;;19.00;53.30;;;;;;8363330;28;20033;-52
2023/12/15 16:17:00;;;;;;;0.43;0.43;;;19.00;53.30;;;;;;8362390;28;20004;-52
2023/12/15 16:21:01;;;;;;;0.30;0.30;;;19.00;53.30;;;;;;8362271;28;20461;-51
2023/12/15 16:25:02;;;;;;;0.40;0.40;;;19.00;53.40;;;;;;8361903;28;20029;-51
2023/12/15 16:29:02;;;;;;;0.47;0.47;;;18.90;53.40;;;;;;8361935;28;20394;-52
2023/12/15 16:33:03;;;;;;;0.20;0.20;;;18.90;53.40;;;;;;8360566;28;20037;-51
2023/12/15 16:37:04;;;;;;;0.30;0.30;;;18.90;53.40;;;;;;8361627;28;20135;-51
2023/12/15 16:41:05;;;;;;;0.43;0.43;;;19.00;53.50;;;;;;8360330;28;20490;-50
2023/12/15 16:45:08;;;;;;;0.30;0.30;;;19.00;53.40;;;;;;8361982;28;20039;-53
2023/12/15 16:49:09;;;;;;;0.40;0.40;;;19.00;53.30;;;;;;8361671;28;20040;-49
2023/12/15 16:53:09;;;;;;;0.40;0.40;;;19.00;53.20;;;;;;8361133;28;20029;-50
2023/12/15 16:57:11;;;;;;;0.90;0.40;;;19.00;53.20;;;;;;8361446;28;20047;-52
2023/12/15 17:01:12;;;;;;;0.50;0.50;;;19.00;53.30;;;;;;8361035;28;20436;-50
2023/12/15 17:05:13;;;;;;;0.40;0.40;;;19.10;53.20;;;;;;8361073;28;20100;-53
2023/12/15 17:09:13;;;;;;;0.70;0.40;;;19.10;53.20;;;;;;8360695;28;20037;-52
2023/12/15 17:13:14;;;;;;;0.40;0.38;;;19.00;53.20;;;;;;8360666;28;20033;-51
2023/12/15 17:17:15;;;;;;;0.40;0.40;;;19.00;53.20;;;;;;8360737;28;20406;-52
2023/12/15 17:21:16;;;;;;;0.40;0.30;;;19.00;53.30;;;;;;8360355;28;20430;-54
2023/12/15 17:25:17;;;;;;;0.40;0.40;;;19.00;53.30;;;;;;8360766;28;20087;-54
2023/12/15 17:29:17;;;;;;;0.38;0.30;;;19.00;53.20;;;;;;8360232;28;20063;-54
2023/12/15 17:33:18;;;;;;;0.30;0.30;;;19.10;53.20;;;;;;8360308;28;20041;-53
2023/12/15 17:37:19;;;;;;;0.40;0.40;;;19.00;53.10;;;;;;8359924;28;20796;-55
2023/12/15 17:41:21;;;;;;;0.40;0.40;;;19.10;53.20;;;;;;8359979;28;20037;-54
2023/12/15 17:45:22;;;;;;;0.40;0.40;;;19.00;53.20;;;;;;8359852;28;20036;-53
2023/12/15 17:49:23;;;;;;;0.30;0.30;;;19.00;53.20;;;;;;8359953;28;20121;-54
2023/12/15 17:53:25;;;;;;;0.57;0.40;;;19.00;53.20;;;;;;8359897;28;20056;-55
2023/12/15 17:57:26;;;;;;;0.30;0.30;;;19.00;53.20;;;;;;8359912;28;20059;-55
2023/12/15 18:01:26;;;;;;;0.47;0.40;;;19.00;53.20;;;;;;8359766;28;20044;-55
2023/12/15 18:05:27;;;;;;;0.73;0.40;;;19.00;53.10;;;;;;8359820;28;20047;-54
2023/12/15 18:09:28;;;;;;;0.47;0.40;;;19.00;53.20;;;;;;8359624;28;20044;-54
2023/12/15 18:13:29;;;;;;;0.40;0.40;;;19.00;53.20;;;;;;8359737;28;20120;-55
2023/12/15 18:22:51;;;;;;;0.40;0.40;;;19.00;53.30;;;;;;8362860;28;20709;-53
2023/12/15 18:26:52;;;;;;;0.50;0.50;;;19.00;53.20;;;;;;8365950;28;20116;-55
2023/12/15 18:30:54;;;;;;;0.40;0.40;;;19.00;53.20;;;;;;8366314;28;20070;-48
2023/12/15 18:34:55;;;;;;;0.65;0.55;;;19.10;53.20;;;;;;8365804;28;20037;-49
2023/12/15 18:38:56;;;;;;;0.60;0.35;;;19.00;53.70;;;;;;8365357;28;20452;-52
2023/12/15 18:42:56;;;;;;;0.30;0.30;;;19.10;53.20;;;;;;8365342;28;20060;-47
2023/12/15 18:46:58;;;;;;;0.43;0.43;;;19.10;53.10;;;;;;8365428;28;20128;-48
2023/12/15 18:50:58;;;;;;;0.40;0.40;;;19.00;53.20;;;;;;8365075;28;20103;-48
2023/12/15 18:55:00;;;;;;;0.90;0.50;;;19.00;53.10;;;;;;8365538;28;20025;-50
2023/12/15 18:59:01;;;;;;;0.38;0.38;;;19.00;53.20;;;;;;8363734;28;20041;-49
2023/12/15 19:03:02;;;;;;;0.40;0.40;;;19.00;53.20;;;;;;8364882;28;20047;-51
2023/12/15 19:07:04;;;;;;;0.50;0.50;;;19.00;53.20;;;;;;8364634;28;20040;-49
2023/12/15 19:11:04;;;;;;;0.30;0.30;;;19.00;53.10;;;;;;8364508;28;20055;-51
2023/12/15 19:15:06;;;;;;;0.40;0.40;;;19.00;53.10;;;;;;8364582;28;20025;-51
2023/12/15 19:19:08;;;;;;;0.30;0.30;;;19.00;53.10;;;;;;8364230;28;20522;-48
2023/12/15 19:23:09;;;;;;;0.20;0.20;;;19.00;53.10;;;;;;8364120;28;20033;-50
2023/12/15 19:27:10;;;;;;;0.40;0.40;;;19.00;53.10;;;;;;8364187;28;20090;-48
2023/12/15 19:31:11;;;;;;;0.40;0.40;;;19.00;53.20;;;;;;8363959;28;20044;-48
2023/12/15 19:35:12;;;;;;;0.32;0.32;;;19.00;53.20;;;;;;8362653;28;20087;-48
2023/12/15 19:39:12;;;;;;;0.40;0.40;;;19.00;53.20;;;;;;8363593;28;20045;-49
2023/12/15 19:43:13;;;;;;;0.65;0.50;;;19.00;53.10;;;;;;8363849;28;20037;-55
2023/12/15 19:47:14;;;;;;;0.32;0.32;;;19.00;53.10;;;;;;8363458;28;20399;-55
2023/12/15 19:51:19;;;;;;;0.30;0.30;;;19.00;53.10;;;;;;8363250;28;20037;-55
2023/12/15 19:55:20;;;;;;;0.35;0.35;;;19.00;53.10;;;;;;8363260;28;20460;-54
2023/12/15 19:59:22;;;;;;;0.40;0.40;;;19.00;53.10;;;;;;8363315;28;20055;-52
2023/12/15 20:03:25;;;;;;;0.47;0.47;;;19.00;53.10;;;;;;8362087;28;20037;-54
2023/12/15 20:07:26;;;;;;;0.40;0.40;;;19.00;53.10;;;;;;8361640;28;20040;-55
2023/12/15 20:11:27;;;;;;;0.47;0.47;;;19.00;53.10;;;;;;8362772;28;20040;-54
2023/12/15 20:15:27;;;;;;;0.60;0.60;;;19.10;53.10;;;;;;8362725;28;20432;-54
2023/12/15 20:19:28;;;;;;;0.63;0.40;;;19.00;53.00;;;;;;8362502;28;20078;-54
2023/12/15 20:23:30;;;;;;;0.50;0.50;;;19.00;53.00;;;;;;8362580;28;20034;-55
2023/12/15 20:27:34;;;;;;;1.00;0.90;;;19.00;53.00;;;;;;8362138;28;20091;-54
2023/12/15 20:31:35;;;;;;;0.50;0.50;;;19.00;53.00;;;;;;8361921;28;20095;-54
2023/12/15 20:35:36;;;;;;;0.47;0.47;;;19.00;53.00;;;;;;8362049;28;20124;-55
2023/12/15 20:39:36;;;;;;;0.50;0.50;;;19.00;53.00;;;;;;8361561;28;20490;-55
2023/12/15 20:43:38;;;;;;;0.52;0.52;;;19.00;53.00;;;;;;8361313;28;20036;-54
2023/12/15 20:47:38;;;;;;;0.55;0.50;;;19.00;52.90;;;;;;8362144;28;20072;-54
2023/12/15 20:51:39;;;;;;;0.60;0.60;;;19.10;53.00;;;;;;8361538;28;20490;-52
2023/12/15 20:55:40;;;;;;;0.70;0.60;;;19.00;53.00;;;;;;8361146;28;20033;-50
2023/12/15 20:59:41;;;;;;;0.85;0.60;;;19.10;52.90;;;;;;8328788;28;20029;-52